createdAt,value
2022-10-11T00:02:10.820Z,11.10
2022-10-11T00:05:19.417Z,11.10
2022-10-11T00:08:29.388Z,11.10
2022-10-11T00:11:37.795Z,11.20
2022-10-11T00:14:46.257Z,11.20
2022-10-11T00:17:54.683Z,11.20
2022-10-11T00:21:04.726Z,11.20
2022-10-11T00:24:16.126Z,11.10
2022-10-11T00:27:24.655Z,11.10
2022-10-11T00:30:33.460Z,11.10
2022-10-11T00:33:41.926Z,11.10
2022-10-11T00:36:50.388Z,11.00
2022-10-11T00:40:00.438Z,11.00
2022-10-11T00:43:17.819Z,11.00
2022-10-11T00:46:29.598Z,11.00
2022-10-11T00:49:42.171Z,11.00
2022-10-11T00:52:56.640Z,11.10
2022-10-11T00:56:11.072Z,11.20
2022-10-11T00:59:24.136Z,11.20
2022-10-11T01:02:32.604Z,11.20
2022-10-11T01:05:41.561Z,11.20
2022-10-11T01:08:51.436Z,11.20
2022-10-11T01:12:03.835Z,11.20
2022-10-11T01:15:18.587Z,11.20
2022-10-11T01:18:32.642Z,11.20
2022-10-11T01:21:48.060Z,11.20
2022-10-11T01:25:16.017Z,11.20
2022-10-11T01:28:40.847Z,11.20
2022-10-11T01:31:56.734Z,11.20
2022-10-11T01:35:12.116Z,11.20
2022-10-11T01:38:30.037Z,11.10
2022-10-11T01:41:42.175Z,11.10
2022-10-11T01:44:52.630Z,11.10
2022-10-11T01:48:07.934Z,11.10
2022-10-11T01:51:17.207Z,11.10
2022-10-11T01:55:07.536Z,11.10
2022-10-11T01:58:18.364Z,11.20
2022-10-11T02:01:36.689Z,11.30
2022-10-11T02:04:54.058Z,11.20
2022-10-11T02:08:08.271Z,11.10
2022-10-11T02:11:22.290Z,11.10
2022-10-11T02:14:36.716Z,11.10
2022-10-11T02:17:49.397Z,11.10
2022-10-11T02:21:01.915Z,11.10
2022-10-11T02:24:14.655Z,11.00
2022-10-11T02:27:26.958Z,11.00
2022-10-11T02:30:37.314Z,11.00
2022-10-11T02:33:49.222Z,11.10
2022-10-11T02:37:05.339Z,11.20
2022-10-11T02:40:20.564Z,11.20
2022-10-11T02:43:36.642Z,11.30
2022-10-11T02:46:46.780Z,11.30
2022-10-11T02:49:55.401Z,11.30
2022-10-11T02:53:05.720Z,11.30
2022-10-11T02:56:14.093Z,11.30
2022-10-11T02:59:22.489Z,11.30
2022-10-11T03:02:30.919Z,11.20
2022-10-11T03:05:41.691Z,11.30
2022-10-11T03:08:51.495Z,11.30
2022-10-11T03:11:59.946Z,11.30
2022-10-11T03:15:09.129Z,11.30
2022-10-11T03:18:17.651Z,11.30
2022-10-11T03:21:26.523Z,11.30
2022-10-11T03:24:36.370Z,11.30
2022-10-11T03:27:44.845Z,11.20
2022-10-11T03:30:53.773Z,11.20
2022-10-11T03:34:02.192Z,11.20
2022-10-11T03:37:10.597Z,11.20
2022-10-11T03:40:20.738Z,11.20
2022-10-11T03:43:29.163Z,11.20
2022-10-11T03:46:37.645Z,11.20
2022-10-11T03:49:46.100Z,11.20
2022-10-11T03:52:54.512Z,11.20
2022-10-11T03:56:08.290Z,11.20
2022-10-11T03:59:17.071Z,11.20
2022-10-11T04:02:25.502Z,11.10
2022-10-11T04:05:34.015Z,11.10
2022-10-11T04:08:42.426Z,11.10
2022-10-11T04:11:52.228Z,11.10
2022-10-11T04:15:00.694Z,11.10
2022-10-11T04:18:09.588Z,11.10
2022-10-11T04:21:18.021Z,11.10
2022-10-11T04:24:26.548Z,11.10
2022-10-11T04:27:36.465Z,11.10
2022-10-11T04:30:44.893Z,11.10
2022-10-11T04:33:53.320Z,11.20
2022-10-11T04:37:01.731Z,11.20
2022-10-11T04:40:11.388Z,11.30
2022-10-11T04:43:21.698Z,11.20
2022-10-11T04:46:30.475Z,11.20
2022-10-11T04:49:38.873Z,11.20
2022-10-11T04:52:47.289Z,11.20
2022-10-11T04:56:01.487Z,11.20
2022-10-11T04:59:11.860Z,11.20
2022-10-11T05:02:20.407Z,11.30
2022-10-11T05:05:28.955Z,11.20
2022-10-11T05:08:37.591Z,11.20
2022-10-11T05:11:46.050Z,11.20
2022-10-11T05:14:55.943Z,11.20
2022-10-11T05:18:05.927Z,11.20
2022-10-11T05:21:18.382Z,11.20
2022-10-11T05:24:27.322Z,11.10
2022-10-11T05:27:35.786Z,11.00
2022-10-11T05:30:46.761Z,11.00
2022-10-11T05:33:55.174Z,11.10
2022-10-11T05:37:03.622Z,11.10
2022-10-11T05:40:13.162Z,11.10
2022-10-11T05:43:21.904Z,11.10
2022-10-11T05:46:31.824Z,11.20
2022-10-11T05:49:40.423Z,11.20
2022-10-11T05:52:48.894Z,11.20
2022-10-11T05:55:57.697Z,11.10
2022-10-11T05:59:06.384Z,11.20
2022-10-11T06:02:16.772Z,11.10
2022-10-11T06:05:25.209Z,11.10
2022-10-11T06:08:33.761Z,11.20
2022-10-11T06:11:42.888Z,11.20
2022-10-11T06:14:51.297Z,11.20
2022-10-11T06:18:01.190Z,11.30
2022-10-11T06:21:09.610Z,11.30
2022-10-11T06:24:18.007Z,11.20
2022-10-11T06:27:26.510Z,11.20
2022-10-11T06:30:34.903Z,11.20
2022-10-11T06:33:44.711Z,11.30
2022-10-11T06:36:53.186Z,11.40
2022-10-11T06:40:01.612Z,11.50
2022-10-11T06:43:10.098Z,13.20
2022-10-11T06:46:19.295Z,14.60
2022-10-11T06:49:29.226Z,14.40
2022-10-11T06:52:37.810Z,15.90
2022-10-11T06:55:47.287Z,14.70
2022-10-11T06:58:56.669Z,15.30
2022-10-11T07:02:05.126Z,15.80
2022-10-11T07:05:15.043Z,18.10
2022-10-11T07:08:23.464Z,16.90
2022-10-11T07:11:32.607Z,18.20
2022-10-11T07:14:41.025Z,20.50
2022-10-11T07:17:49.442Z,21.70
2022-10-11T07:20:59.568Z,19.60
2022-10-11T07:24:08.763Z,18.90
2022-10-11T07:27:17.207Z,21.80
2022-10-11T07:30:25.665Z,23.00
2022-10-11T07:33:34.192Z,23.80
2022-10-11T07:36:44.006Z,24.40
2022-10-11T07:39:52.481Z,23.80
2022-10-11T07:43:01.171Z,21.60
2022-10-11T07:46:10.143Z,23.70
2022-10-11T07:49:18.963Z,24.80
2022-10-11T07:52:28.798Z,26.00
2022-10-11T07:55:40.553Z,25.60
2022-10-11T07:58:52.371Z,27.10
2022-10-11T08:02:01.483Z,27.50
2022-10-11T08:05:10.226Z,27.00
2022-10-11T08:08:20.389Z,23.60
2022-10-11T08:11:31.138Z,24.40
2022-10-11T08:14:41.485Z,25.20
2022-10-11T08:17:50.030Z,26.50
2022-10-11T08:20:58.530Z,27.20
2022-10-11T08:24:08.841Z,27.20
2022-10-11T08:27:17.315Z,26.90
2022-10-11T08:30:25.774Z,27.00
2022-10-11T08:33:34.383Z,27.40
2022-10-11T08:36:42.928Z,27.60
2022-10-11T08:39:52.798Z,28.00
2022-10-11T08:43:06.035Z,24.40
2022-10-11T08:46:16.180Z,22.70
2022-10-11T08:49:28.482Z,21.90
2022-10-11T08:52:48.829Z,22.80
2022-10-11T08:55:58.668Z,20.90
2022-10-11T08:59:19.179Z,18.90
2022-10-11T09:03:03.113Z,19.60
2022-10-11T09:06:16.075Z,18.60
2022-10-11T09:09:43.811Z,18.20
2022-10-11T09:13:04.149Z,18.20
2022-10-11T09:16:20.697Z,18.50
2022-10-11T09:19:56.242Z,19.40
2022-10-11T09:23:11.121Z,19.60
2022-10-11T09:26:29.045Z,19.40
2022-10-11T09:29:53.656Z,19.50
2022-10-11T09:33:14.541Z,19.40
2022-10-11T09:36:30.209Z,18.70
2022-10-11T09:39:45.212Z,18.50
2022-10-11T09:42:53.751Z,18.50
2022-10-11T09:46:03.971Z,18.30
2022-10-11T09:49:17.065Z,18.30
2022-10-11T09:52:27.683Z,18.00
2022-10-11T09:55:40.078Z,18.00
2022-10-11T09:58:48.850Z,17.90
2022-10-11T10:02:21.736Z,17.90
2022-10-11T10:05:31.626Z,18.10
2022-10-11T10:08:40.172Z,17.90
2022-10-11T10:11:48.791Z,17.50
2022-10-11T10:15:07.453Z,16.70
2022-10-11T10:18:23.803Z,16.40
2022-10-11T10:21:34.892Z,15.90
2022-10-11T10:24:43.910Z,15.90
2022-10-11T10:28:00.313Z,15.80
2022-10-11T10:31:23.423Z,16.10
2022-10-11T10:34:36.526Z,16.50
2022-10-11T10:37:49.913Z,16.70
2022-10-11T10:41:00.314Z,16.20
2022-10-11T10:44:11.412Z,16.20
2022-10-11T10:47:36.737Z,16.30
2022-10-11T10:50:53.813Z,16.10
2022-10-11T10:54:12.054Z,16.30
2022-10-11T10:57:26.326Z,16.60
2022-10-11T11:00:42.374Z,17.00
2022-10-11T11:03:58.952Z,16.70
2022-10-11T11:07:19.162Z,16.40
2022-10-11T11:10:35.486Z,15.80
2022-10-11T11:13:51.165Z,15.50
2022-10-11T11:17:07.199Z,15.40
2022-10-11T11:20:33.003Z,15.60
2022-10-11T11:23:50.623Z,15.60
2022-10-11T11:27:07.549Z,16.20
2022-10-11T11:30:21.557Z,15.90
2022-10-11T11:33:44.046Z,15.80
2022-10-11T11:36:59.813Z,15.80
2022-10-11T11:40:17.605Z,16.00
2022-10-11T11:43:34.163Z,15.80
2022-10-11T11:46:46.768Z,15.60
2022-10-11T11:50:00.280Z,15.40
2022-10-11T11:53:15.606Z,15.00
2022-10-11T11:56:30.537Z,15.10
2022-10-11T11:59:45.639Z,15.10
2022-10-11T12:02:56.667Z,15.10
2022-10-11T12:06:30.058Z,15.10
2022-10-11T12:09:41.260Z,15.00
2022-10-11T12:13:02.295Z,15.20
2022-10-11T12:16:13.076Z,15.40
2022-10-11T12:19:21.915Z,15.20
2022-10-11T12:22:51.890Z,15.00
2022-10-11T12:26:35.394Z,14.80
2022-10-11T12:29:51.894Z,14.80
2022-10-11T12:33:07.982Z,15.00
2022-10-11T12:36:37.807Z,15.20
2022-10-11T12:39:52.885Z,15.20
2022-10-11T12:43:26.234Z,14.90
2022-10-11T12:46:41.414Z,14.70
2022-10-11T12:50:03.867Z,14.40
2022-10-11T12:53:22.260Z,14.50
2022-10-11T12:56:44.899Z,14.40
2022-10-11T12:59:53.423Z,14.40
2022-10-11T13:03:06.029Z,14.30
2022-10-11T13:06:18.964Z,14.20
2022-10-11T13:09:31.680Z,14.20
2022-10-11T13:12:43.944Z,14.20
2022-10-11T13:15:54.205Z,14.30
2022-10-11T13:19:07.557Z,14.30
2022-10-11T13:22:21.762Z,14.30
2022-10-11T13:25:37.547Z,14.30
2022-10-11T13:28:46.132Z,14.10
2022-10-11T13:31:54.739Z,13.90
2022-10-11T13:35:06.601Z,13.90
2022-10-11T13:38:22.531Z,13.90
2022-10-11T13:41:33.019Z,13.80
2022-10-11T13:44:43.089Z,13.70
2022-10-11T13:47:52.738Z,13.80
2022-10-11T13:51:13.554Z,13.90
2022-10-11T13:54:22.002Z,13.90
2022-10-11T13:57:36.783Z,13.80
2022-10-11T14:00:55.125Z,13.90
2022-10-11T14:04:06.167Z,13.70
2022-10-11T14:07:25.302Z,13.80
2022-10-11T14:10:34.575Z,13.80
2022-10-11T14:13:44.772Z,13.80
2022-10-11T14:16:57.460Z,13.60
2022-10-11T14:20:15.820Z,13.40
2022-10-11T14:23:25.666Z,13.40
2022-10-11T14:26:37.042Z,13.30
2022-10-11T14:29:55.610Z,13.40
2022-10-11T14:33:14.230Z,13.40
2022-10-11T14:36:23.808Z,13.30
2022-10-11T14:39:34.902Z,13.20
2022-10-11T14:42:43.402Z,13.20
2022-10-11T14:45:51.843Z,13.20
2022-10-11T14:49:00.329Z,13.10
2022-10-11T14:52:12.319Z,13.10
2022-10-11T14:55:22.194Z,13.10
2022-10-11T14:58:30.732Z,13.10
2022-10-11T15:01:39.284Z,13.20
2022-10-11T15:04:47.785Z,13.20
2022-10-11T15:07:56.172Z,13.20
2022-10-11T15:11:06.071Z,13.10
2022-10-11T15:14:14.706Z,13.00
2022-10-11T15:17:23.381Z,13.00
2022-10-11T15:20:35.986Z,12.90
2022-10-11T15:23:55.439Z,12.90
2022-10-11T15:27:06.622Z,12.80
2022-10-11T15:30:19.670Z,12.80
2022-10-11T15:33:30.308Z,12.80
2022-10-11T15:36:39.108Z,12.70
2022-10-11T15:39:47.581Z,12.60
2022-10-11T15:42:57.533Z,12.70
2022-10-11T15:46:06.796Z,12.70
2022-10-11T15:49:15.802Z,12.70
2022-10-11T15:52:24.242Z,12.70
2022-10-11T15:55:34.668Z,12.60
2022-10-11T15:58:44.970Z,12.50
2022-10-11T16:01:53.411Z,12.40
2022-10-11T16:05:01.990Z,12.30
2022-10-11T16:08:12.600Z,12.40
2022-10-11T16:11:22.049Z,12.30
2022-10-11T16:14:32.473Z,12.20
2022-10-11T16:17:40.980Z,12.30
2022-10-11T16:20:52.422Z,12.30
2022-10-11T16:24:00.889Z,12.20
2022-10-11T16:27:14.180Z,12.10
2022-10-11T16:30:26.411Z,12.10
2022-10-11T16:33:34.983Z,12.10
2022-10-11T16:36:46.280Z,12.10
2022-10-11T16:39:58.347Z,12.10
2022-10-11T16:43:08.082Z,12.10
2022-10-11T16:46:52.600Z,12.20
2022-10-11T16:50:03.531Z,12.10
2022-10-11T16:53:14.012Z,12.00
2022-10-11T16:56:25.366Z,12.00
2022-10-11T16:59:34.440Z,11.90
2022-10-11T17:02:44.396Z,11.90
2022-10-11T17:05:54.605Z,11.90
2022-10-11T17:09:03.105Z,11.90
2022-10-11T17:12:13.550Z,11.90
2022-10-11T17:15:23.299Z,11.90
2022-10-11T17:18:33.414Z,11.90
2022-10-11T17:21:42.101Z,11.90
2022-10-11T17:24:50.586Z,11.80
2022-10-11T17:27:59.319Z,11.80
2022-10-11T17:31:10.319Z,11.80
2022-10-11T17:34:20.670Z,11.70
2022-10-11T17:37:29.249Z,11.80
2022-10-11T17:40:37.673Z,11.70
2022-10-11T17:43:46.476Z,11.70
2022-10-11T17:46:54.898Z,11.70
2022-10-11T17:50:04.976Z,11.70
2022-10-11T17:53:13.376Z,11.80
2022-10-11T17:56:28.808Z,11.70
2022-10-11T17:59:41.915Z,11.80
2022-10-11T18:02:51.446Z,11.80
2022-10-11T18:06:04.090Z,11.80
2022-10-11T18:09:14.231Z,11.80
2022-10-11T18:12:22.811Z,11.80
2022-10-11T18:15:32.085Z,11.80
2022-10-11T18:18:41.059Z,11.80
2022-10-11T18:21:51.062Z,11.80
2022-10-11T18:25:00.359Z,11.70
2022-10-11T18:28:09.381Z,11.70
2022-10-11T18:31:20.135Z,11.60
2022-10-11T18:34:28.699Z,11.60
2022-10-11T18:37:38.522Z,11.60
2022-10-11T18:40:47.378Z,11.40
2022-10-11T18:43:57.890Z,11.50
2022-10-11T18:47:06.409Z,11.40
2022-10-11T18:50:15.142Z,11.40
2022-10-11T18:53:27.593Z,11.40
2022-10-11T18:56:37.793Z,11.40
2022-10-11T18:59:46.363Z,11.40
2022-10-11T19:03:02.444Z,11.40
2022-10-11T19:06:18.198Z,11.50
2022-10-11T19:09:28.895Z,11.50
2022-10-11T19:12:37.377Z,11.50
2022-10-11T19:15:46.662Z,11.60
2022-10-11T19:18:55.483Z,11.60
2022-10-11T19:22:04.515Z,11.60
2022-10-11T19:25:14.421Z,11.60
2022-10-11T19:28:23.165Z,11.60
2022-10-11T19:31:32.870Z,11.60
2022-10-11T19:34:41.606Z,11.60
2022-10-11T19:37:50.050Z,11.60
2022-10-11T19:41:04.620Z,11.60
2022-10-11T19:44:14.010Z,11.50
2022-10-11T19:47:23.115Z,11.50
2022-10-11T19:50:31.990Z,11.50
2022-10-11T19:53:40.733Z,11.40
2022-10-11T19:56:54.320Z,11.40
2022-10-11T20:00:08.204Z,11.40
2022-10-11T20:03:16.992Z,11.40
2022-10-11T20:06:26.577Z,11.50
2022-10-11T20:09:34.957Z,11.40
2022-10-11T20:12:46.026Z,11.40
2022-10-11T20:15:58.061Z,11.30
2022-10-11T20:19:06.536Z,11.40
2022-10-11T20:22:14.988Z,11.40
2022-10-11T20:25:23.522Z,11.50
2022-10-11T20:28:35.361Z,11.50
2022-10-11T20:31:43.872Z,11.50
2022-10-11T20:34:52.343Z,11.50
2022-10-11T20:38:00.849Z,11.50
2022-10-11T20:41:11.289Z,11.40
2022-10-11T20:44:21.104Z,11.40
2022-10-11T20:47:29.543Z,11.40
2022-10-11T20:50:38.288Z,11.40
2022-10-11T20:53:47.889Z,11.40
2022-10-11T20:56:57.744Z,11.40
2022-10-11T21:00:09.214Z,11.40
2022-10-11T21:03:18.131Z,11.40
2022-10-11T21:06:27.501Z,11.40
2022-10-11T21:09:35.987Z,11.40
2022-10-11T21:12:44.482Z,11.30
2022-10-11T21:15:55.334Z,11.30
2022-10-11T21:19:06.473Z,11.20
2022-10-11T21:22:15.153Z,11.20
2022-10-11T21:25:23.533Z,11.20
2022-10-11T21:28:32.105Z,11.20
2022-10-11T21:31:42.190Z,11.20
2022-10-11T21:34:50.705Z,11.20
2022-10-11T21:38:00.022Z,11.20
2022-10-11T21:41:11.265Z,11.20
2022-10-11T21:44:19.798Z,11.20
2022-10-11T21:47:31.379Z,11.20
2022-10-11T21:50:39.976Z,11.20
2022-10-11T21:53:48.425Z,11.20
2022-10-11T21:56:56.938Z,11.30
2022-10-11T22:00:08.171Z,11.30
2022-10-11T22:03:23.071Z,11.30
2022-10-11T22:06:31.861Z,11.30
2022-10-11T22:09:40.251Z,11.30
2022-10-11T22:12:48.650Z,11.30
2022-10-11T22:15:57.389Z,11.30
2022-10-11T22:19:07.238Z,11.30
2022-10-11T22:22:15.946Z,11.30
2022-10-11T22:25:24.351Z,11.30
2022-10-11T22:28:32.808Z,11.30
2022-10-11T22:31:42.351Z,11.30
2022-10-11T22:34:52.163Z,11.30
2022-10-11T22:38:00.562Z,11.30
2022-10-11T22:41:09.557Z,11.30
2022-10-11T22:44:18.030Z,11.30
2022-10-11T22:47:27.924Z,11.40
2022-10-11T22:50:38.227Z,11.40
2022-10-11T22:53:46.755Z,11.30
2022-10-11T22:56:55.150Z,11.30
2022-10-11T23:00:03.583Z,11.30
2022-10-11T23:03:14.315Z,11.30
2022-10-11T23:06:24.190Z,11.20
2022-10-11T23:09:32.713Z,11.20
2022-10-11T23:12:41.170Z,11.10
2022-10-11T23:15:49.643Z,11.20
2022-10-11T23:18:58.059Z,11.20
2022-10-11T23:22:07.880Z,11.20
2022-10-11T23:25:16.394Z,11.20
2022-10-11T23:28:24.977Z,11.10
2022-10-11T23:31:33.358Z,11.10
2022-10-11T23:34:41.783Z,11.10
2022-10-11T23:37:51.554Z,11.10
2022-10-11T23:41:00.039Z,11.10
2022-10-11T23:44:08.498Z,11.20
2022-10-11T23:47:16.904Z,11.20
2022-10-11T23:50:25.374Z,11.20
2022-10-11T23:53:35.398Z,11.10
2022-10-11T23:56:43.850Z,11.10
2022-10-11T23:59:52.569Z,11.10
